Time;durP1;ratioP1;P1;durP2;ratioP2;P2;SDS_P1;SDS_P2;PMS_P1;PMS_P2;Temp;Humidity;BMP_temperature;BMP_pressure;BME280_temperature;BME280_humidity;BME280_pressure;Samples;Min_cycle;Max_cycle;Signal;HPM_P1;HPM_P2
2022/09/23 00:02:06;;;;;;;11.60;10.70;;;6.60;99.90;;;;;;4952446;28;20203;-79
2022/09/23 00:04:33;;;;;;;11.27;10.37;;;6.60;99.90;;;;;;4952689;29;20267;-79
2022/09/23 00:07:00;;;;;;;11.10;10.30;;;6.60;99.90;;;;;;4951182;29;20203;-79
2022/09/23 00:09:27;;;;;;;11.40;10.57;;;6.60;99.90;;;;;;4952680;29;20211;-79
2022/09/23 00:11:54;;;;;;;11.33;10.53;;;6.50;99.90;;;;;;4952893;29;20210;-80
2022/09/23 00:14:21;;;;;;;11.43;10.50;;;6.50;99.90;;;;;;4953924;29;20285;-79
2022/09/23 00:16:49;;;;;;;11.17;10.37;;;6.40;99.90;;;;;;4953018;29;20252;-80
2022/09/23 00:19:16;;;;;;;11.50;10.60;;;6.40;99.90;;;;;;4952702;29;20231;-79
2022/09/23 00:21:43;;;;;;;11.20;10.37;;;6.40;99.90;;;;;;4952606;29;20199;-79
2022/09/23 00:24:09;;;;;;;12.00;10.90;;;6.40;99.90;;;;;;4950581;28;20291;-79
2022/09/23 00:26:36;;;;;;;11.50;10.60;;;6.40;99.90;;;;;;4950614;29;20284;-80
2022/09/23 00:29:03;;;;;;;11.33;10.43;;;6.40;99.90;;;;;;4952614;29;20203;-80
2022/09/23 00:31:30;;;;;;;11.90;11.00;;;6.30;99.90;;;;;;4953219;29;20199;-79
2022/09/23 00:34:01;;;;;;;11.57;10.67;;;6.20;99.90;;;;;;4951036;28;20313;-79
2022/09/23 00:36:28;;;;;;;12.00;11.10;;;6.20;99.90;;;;;;4944795;29;20627;-79
2022/09/23 00:38:56;;;;;;;12.23;11.20;;;6.20;99.90;;;;;;4952686;29;20205;-79
2022/09/23 00:41:23;;;;;;;11.17;10.37;;;6.10;99.90;;;;;;4950918;29;20259;-79
2022/09/23 00:43:51;;;;;;;11.77;10.80;;;6.10;99.90;;;;;;4944571;29;20305;-78
2022/09/23 00:46:22;;;;;;;11.20;10.33;;;6.20;99.90;;;;;;4953713;29;20795;-79
2022/09/23 00:48:53;;;;;;;11.57;10.67;;;6.10;99.90;;;;;;4952446;29;20202;-79
2022/09/23 00:51:24;;;;;;;12.03;11.13;;;6.20;99.90;;;;;;4952608;29;20209;-79
2022/09/23 00:53:52;;;;;;;11.27;10.47;;;6.20;99.90;;;;;;4944467;29;20718;-79
2022/09/23 00:56:22;;;;;;;11.67;10.73;;;6.10;99.90;;;;;;4950683;28;20268;-79
2022/09/23 00:58:50;;;;;;;11.73;10.93;;;6.10;99.90;;;;;;4952649;29;20607;-79
2022/09/23 01:01:17;;;;;;;11.37;10.57;;;6.10;99.90;;;;;;4951149;29;20239;-79
2022/09/23 01:03:45;;;;;;;11.53;10.63;;;6.00;99.90;;;;;;4951738;29;20655;-80
2022/09/23 01:06:13;;;;;;;12.43;11.43;;;6.00;99.90;;;;;;4952100;29;20247;-80
2022/09/23 01:08:44;;;;;;;11.20;10.40;;;5.90;99.90;;;;;;4953631;29;20250;-80
2022/09/23 01:11:23;;;;;;;12.00;11.10;;;5.90;99.90;;;;;;4949486;29;20728;-79
2022/09/23 01:14:00;;;;;;;11.33;10.53;;;5.90;99.90;;;;;;4947365;29;20310;-78
2022/09/23 01:16:33;;;;;;;11.80;10.73;;;5.90;99.90;;;;;;4952390;29;20195;-79
2022/09/23 01:19:10;;;;;;;11.67;10.80;;;6.00;99.90;;;;;;4951536;29;20203;-79
2022/09/23 01:21:47;;;;;;;11.97;11.07;;;5.90;99.90;;;;;;4945590;29;20205;-79
2022/09/23 01:24:54;;;;;;;11.80;10.90;;;6.00;99.90;;;;;;4944435;28;20228;-79
2022/09/23 01:27:30;;;;;;;11.43;10.63;;;6.00;99.90;;;;;;4949818;29;20212;-79
2022/09/23 01:30:09;;;;;;;12.20;11.30;;;6.00;99.90;;;;;;4951154;29;20199;-79
2022/09/23 01:32:48;;;;;;;11.57;10.77;;;5.90;99.90;;;;;;4944946;29;20588;-79
2022/09/23 01:35:26;;;;;;;11.87;10.97;;;6.00;99.90;;;;;;4950708;29;20203;-80
2022/09/23 01:37:59;;;;;;;12.60;11.60;;;5.90;99.90;;;;;;4945970;28;20259;-79
2022/09/23 01:40:33;;;;;;;12.20;11.20;;;5.90;99.90;;;;;;4949814;29;20195;-79
2022/09/23 01:43:08;;;;;;;11.30;10.50;;;5.90;99.90;;;;;;4952016;28;20219;-79
2022/09/23 01:45:42;;;;;;;10.77;9.97;;;5.80;99.90;;;;;;4953819;28;20262;-79
2022/09/23 01:48:17;;;;;;;11.60;10.70;;;5.80;99.90;;;;;;4954230;29;20642;-80
2022/09/23 01:50:56;;;;;;;11.47;10.53;;;5.80;99.90;;;;;;4955374;29;20199;-79
2022/09/23 01:53:30;;;;;;;11.77;10.87;;;5.70;99.90;;;;;;4955594;29;20231;-79
2022/09/23 01:56:02;;;;;;;11.33;10.53;;;5.60;99.90;;;;;;4952678;29;20613;-80
2022/09/23 01:58:33;;;;;;;11.80;10.80;;;5.60;99.90;;;;;;4947504;29;20202;-79
2022/09/23 02:01:03;;;;;;;12.07;11.07;;;5.60;99.90;;;;;;4953453;29;20206;-80
2022/09/23 02:03:35;;;;;;;12.07;11.17;;;5.60;99.90;;;;;;4947917;29;20222;-80
2022/09/23 02:06:06;;;;;;;11.97;11.13;;;5.60;99.90;;;;;;4956446;29;20211;-80
2022/09/23 02:08:39;;;;;;;12.40;11.50;;;5.60;99.90;;;;;;4944060;29;20260;-79
2022/09/23 02:11:08;;;;;;;12.30;11.40;;;5.60;99.90;;;;;;4945565;29;20674;-79
2022/09/23 02:13:40;;;;;;;11.77;10.87;;;5.70;99.90;;;;;;4955035;29;20778;-80
2022/09/23 02:16:13;;;;;;;11.43;10.57;;;5.70;99.90;;;;;;4952102;29;20191;-79
2022/09/23 02:18:46;;;;;;;12.40;11.43;;;5.60;99.90;;;;;;4952891;29;20293;-79
2022/09/23 02:21:15;;;;;;;12.43;11.43;;;5.70;99.90;;;;;;4953671;29;20552;-79
2022/09/23 02:23:44;;;;;;;12.27;11.37;;;5.60;99.90;;;;;;4955366;28;20241;-79
2022/09/23 02:26:18;;;;;;;12.10;11.20;;;5.60;99.90;;;;;;4954805;28;20219;-79
2022/09/23 02:28:55;;;;;;;13.23;12.13;;;5.60;99.90;;;;;;4951186;29;20228;-79
2022/09/23 02:31:32;;;;;;;12.23;11.33;;;5.60;99.90;;;;;;4953321;29;20262;-79
2022/09/23 02:34:11;;;;;;;12.57;11.53;;;5.60;99.90;;;;;;4951944;29;20218;-79
2022/09/23 02:36:47;;;;;;;12.10;11.20;;;5.70;99.90;;;;;;4948138;29;20202;-79
2022/09/23 02:39:15;;;;;;;12.50;11.47;;;5.70;99.90;;;;;;4955581;29;20195;-80
2022/09/23 02:41:51;;;;;;;12.40;11.50;;;5.80;99.90;;;;;;4954661;29;20226;-81
2022/09/23 02:44:19;;;;;;;12.60;11.50;;;5.80;99.90;;;;;;4952473;29;20210;-79
2022/09/23 02:46:47;;;;;;;12.67;11.70;;;5.70;99.90;;;;;;4951813;29;20238;-79
2022/09/23 02:49:19;;;;;;;12.53;11.53;;;5.70;99.90;;;;;;4953177;29;20238;-79
2022/09/23 02:51:46;;;;;;;12.47;11.47;;;5.70;99.90;;;;;;4944393;29;20200;-79
2022/09/23 02:54:16;;;;;;;12.07;11.17;;;5.70;99.90;;;;;;4954423;29;20218;-78
2022/09/23 02:56:43;;;;;;;12.67;11.67;;;5.50;99.90;;;;;;4954260;28;20250;-78
2022/09/23 02:59:12;;;;;;;12.13;11.13;;;5.50;99.90;;;;;;4956536;29;20625;-81
2022/09/23 03:01:47;;;;;;;12.70;11.70;;;5.50;99.90;;;;;;4959050;28;20206;-79
2022/09/23 03:04:21;;;;;;;12.93;11.93;;;5.50;99.90;;;;;;4968017;28;20293;-79
2022/09/23 03:06:57;;;;;;;11.53;10.70;;;5.50;99.90;;;;;;4962215;28;20225;-80
2022/09/23 03:09:29;;;;;;;12.43;11.53;;;5.50;99.90;;;;;;4957280;29;20620;-79
2022/09/23 03:12:08;;;;;;;13.13;12.10;;;5.50;99.90;;;;;;4958169;28;20202;-78
2022/09/23 03:14:44;;;;;;;12.83;11.93;;;5.50;99.90;;;;;;4946365;29;20735;-79
2022/09/23 03:17:16;;;;;;;13.10;12.10;;;5.50;99.90;;;;;;4966361;28;20232;-78
2022/09/23 03:19:49;;;;;;;13.17;11.87;;;5.40;99.90;;;;;;4958812;28;20265;-78
2022/09/23 03:22:21;;;;;;;12.80;11.90;;;5.30;99.90;;;;;;4956560;29;20222;-79
2022/09/23 03:24:50;;;;;;;13.30;12.20;;;5.20;99.90;;;;;;4956729;29;20301;-79
2022/09/23 03:27:22;;;;;;;12.80;11.80;;;5.20;99.90;;;;;;4955648;29;20723;-80
2022/09/23 03:29:52;;;;;;;12.93;12.03;;;5.20;99.90;;;;;;4956266;29;20250;-79
2022/09/23 03:32:22;;;;;;;12.93;11.93;;;5.20;99.90;;;;;;4951758;28;20226;-80
2022/09/23 03:34:54;;;;;;;13.07;12.07;;;5.20;99.90;;;;;;4953864;29;20203;-79
2022/09/23 03:37:24;;;;;;;13.40;12.40;;;5.30;99.90;;;;;;4953503;29;20630;-79
2022/09/23 03:39:55;;;;;;;12.73;11.73;;;5.30;99.90;;;;;;4948552;29;20202;-76
2022/09/23 03:42:24;;;;;;;13.07;11.97;;;5.30;99.90;;;;;;4951627;29;20270;-77
2022/09/23 03:44:55;;;;;;;13.47;12.37;;;5.30;99.90;;;;;;4951202;29;20269;-77
2022/09/23 03:47:23;;;;;;;13.17;12.27;;;5.30;99.90;;;;;;4951217;29;20274;-76
2022/09/23 03:49:52;;;;;;;13.00;12.10;;;5.30;99.90;;;;;;4954166;28;20202;-76
2022/09/23 03:52:21;;;;;;;12.67;11.73;;;5.20;99.90;;;;;;4953172;28;20282;-76
2022/09/23 03:54:49;;;;;;;12.20;11.40;;;5.20;99.90;;;;;;4953301;29;20251;-79
2022/09/23 03:57:16;;;;;;;13.33;12.23;;;5.10;99.90;;;;;;4952806;29;20202;-77
2022/09/23 03:59:43;;;;;;;13.23;12.17;;;5.10;99.90;;;;;;4951048;29;20285;-77
2022/09/23 04:02:10;;;;;;;13.03;11.93;;;5.10;99.90;;;;;;4950897;29;20203;-77
2022/09/23 04:04:39;;;;;;;13.73;12.43;;;5.10;99.90;;;;;;4951494;29;20206;-76
2022/09/23 04:07:07;;;;;;;12.47;11.57;;;5.10;99.90;;;;;;4953518;29;20209;-76
2022/09/23 04:09:35;;;;;;;12.60;11.70;;;5.10;99.90;;;;;;4942440;29;20580;-77
2022/09/23 04:12:02;;;;;;;13.00;12.10;;;5.10;99.90;;;;;;4957007;28;20742;-77
2022/09/23 04:14:29;;;;;;;13.60;12.60;;;5.10;99.90;;;;;;4941808;28;20206;-77
2022/09/23 04:16:56;;;;;;;12.90;12.00;;;5.00;99.90;;;;;;4953833;29;20316;-76
2022/09/23 04:19:23;;;;;;;12.83;11.93;;;5.00;99.90;;;;;;4953479;29;20249;-78
2022/09/23 04:21:50;;;;;;;13.20;12.20;;;5.00;99.90;;;;;;4953746;28;20206;-77
2022/09/23 04:24:18;;;;;;;13.53;12.53;;;5.00;99.90;;;;;;4950571;29;20293;-77
2022/09/23 04:26:45;;;;;;;13.50;12.43;;;5.00;99.90;;;;;;4950640;29;20218;-77
2022/09/23 04:29:12;;;;;;;13.33;12.27;;;4.90;99.90;;;;;;4951696;29;20242;-76
2022/09/23 04:31:39;;;;;;;14.00;12.77;;;4.90;99.90;;;;;;4953277;29;20254;-76
2022/09/23 04:34:06;;;;;;;12.70;11.80;;;4.90;99.90;;;;;;4951856;28;20271;-76
2022/09/23 04:36:33;;;;;;;13.33;12.23;;;4.80;99.90;;;;;;4950640;29;20694;-77
2022/09/23 04:39:00;;;;;;;14.13;13.13;;;4.70;99.90;;;;;;4949567;29;20202;-77
2022/09/23 04:41:28;;;;;;;13.93;12.60;;;4.80;99.90;;;;;;4944165;29;20289;-77
2022/09/23 04:43:56;;;;;;;13.87;12.73;;;4.80;99.90;;;;;;4951634;28;20214;-76
2022/09/23 04:46:23;;;;;;;14.20;13.10;;;4.80;99.90;;;;;;4952193;29;20277;-77
2022/09/23 04:48:50;;;;;;;14.97;13.57;;;4.70;99.90;;;;;;4948952;29;20202;-77
2022/09/23 04:51:19;;;;;;;15.10;13.77;;;4.70;99.90;;;;;;4951197;29;20198;-77
2022/09/23 04:53:47;;;;;;;14.97;13.77;;;4.70;99.90;;;;;;4952852;29;20270;-76
2022/09/23 04:56:16;;;;;;;14.47;13.27;;;4.70;99.90;;;;;;4951324;29;20197;-77
2022/09/23 04:58:45;;;;;;;14.53;13.40;;;4.60;99.90;;;;;;4952196;29;20282;-76
2022/09/23 05:01:15;;;;;;;14.87;13.57;;;4.60;99.90;;;;;;4952375;29;20199;-77
2022/09/23 05:03:43;;;;;;;14.70;13.50;;;4.50;99.90;;;;;;4953149;28;20214;-77
2022/09/23 05:06:12;;;;;;;15.03;13.83;;;4.50;99.90;;;;;;4949196;29;20227;-77
2022/09/23 05:08:39;;;;;;;13.70;12.70;;;4.50;99.90;;;;;;4949200;29;20608;-77
2022/09/23 05:11:07;;;;;;;14.13;13.10;;;4.50;99.90;;;;;;4952546;28;20199;-78
2022/09/23 05:13:35;;;;;;;14.90;13.70;;;4.50;99.90;;;;;;4953093;28;20722;-77
2022/09/23 05:16:05;;;;;;;14.00;13.00;;;4.60;99.90;;;;;;4951989;29;20210;-76
2022/09/23 05:18:32;;;;;;;15.00;13.80;;;4.60;99.90;;;;;;4949574;29;20194;-76
2022/09/23 05:20:59;;;;;;;14.37;13.20;;;4.60;99.90;;;;;;4950747;29;20265;-77
2022/09/23 05:23:27;;;;;;;15.50;14.23;;;4.70;99.90;;;;;;4952141;29;20289;-76
2022/09/23 05:25:58;;;;;;;14.53;13.43;;;4.70;99.90;;;;;;4954885;28;20214;-76
2022/09/23 05:28:25;;;;;;;14.50;13.40;;;4.80;99.90;;;;;;4955183;28;20668;-76
2022/09/23 05:30:52;;;;;;;14.20;13.10;;;4.80;99.90;;;;;;4949803;29;20648;-77
2022/09/23 05:33:20;;;;;;;15.00;13.80;;;4.90;99.90;;;;;;4955486;29;20226;-77
2022/09/23 05:35:47;;;;;;;14.80;13.47;;;4.90;99.90;;;;;;4955228;29;20199;-76
2022/09/23 05:38:15;;;;;;;14.60;13.50;;;5.00;99.90;;;;;;4955432;29;20203;-78
2022/09/23 05:40:43;;;;;;;14.83;13.73;;;5.00;99.90;;;;;;4954144;28;20217;-77
2022/09/23 05:43:10;;;;;;;13.97;12.87;;;5.10;99.90;;;;;;4948500;29;20227;-76
2022/09/23 05:45:36;;;;;;;13.43;12.43;;;5.30;99.90;;;;;;4956308;29;20302;-78
2022/09/23 05:48:03;;;;;;;14.63;13.37;;;5.40;99.90;;;;;;4954963;29;20676;-77
2022/09/23 05:50:32;;;;;;;14.53;13.43;;;5.50;99.90;;;;;;4952135;29;20672;-76
2022/09/23 05:52:59;;;;;;;14.23;13.23;;;5.50;99.90;;;;;;4953951;29;20594;-77
2022/09/23 05:55:26;;;;;;;13.87;12.87;;;5.70;99.90;;;;;;4954997;28;20195;-77
2022/09/23 05:57:53;;;;;;;14.33;13.23;;;5.80;99.90;;;;;;4955338;28;20210;-77
2022/09/23 06:00:20;;;;;;;13.77;12.77;;;5.90;99.90;;;;;;4955517;29;20198;-77
2022/09/23 06:02:47;;;;;;;13.87;12.83;;;6.00;99.90;;;;;;4956765;28;20218;-79
2022/09/23 06:05:15;;;;;;;13.43;12.43;;;6.10;99.90;;;;;;4954910;28;20194;-77
2022/09/23 06:07:43;;;;;;;13.90;12.90;;;6.20;99.90;;;;;;4957639;29;20230;-78
2022/09/23 06:10:10;;;;;;;12.93;12.00;;;6.20;99.90;;;;;;4955220;29;20193;-79
2022/09/23 06:12:37;;;;;;;12.93;11.93;;;6.30;99.90;;;;;;4954699;29;20220;-79
2022/09/23 06:15:05;;;;;;;13.20;12.17;;;6.40;99.90;;;;;;4957635;29;20257;-79
2022/09/23 06:17:31;;;;;;;13.77;12.77;;;6.50;99.90;;;;;;4949889;28;20227;-78
2022/09/23 06:19:58;;;;;;;12.70;11.80;;;6.60;99.90;;;;;;4954222;28;20268;-78
2022/09/23 06:22:31;;;;;;;12.73;11.80;;;6.60;99.90;;;;;;4954709;29;20225;-79
2022/09/23 06:24:59;;;;;;;12.90;12.00;;;6.70;99.90;;;;;;4945538;29;20201;-77
2022/09/23 06:27:26;;;;;;;12.90;12.00;;;6.80;99.90;;;;;;4955444;29;20212;-77
2022/09/23 06:29:53;;;;;;;13.33;12.33;;;6.80;99.90;;;;;;4952625;29;20204;-77
2022/09/23 06:32:20;;;;;;;12.83;11.93;;;6.90;99.90;;;;;;4953063;28;20314;-77
2022/09/23 06:34:47;;;;;;;12.90;11.97;;;7.00;99.90;;;;;;4955668;29;20262;-78
2022/09/23 06:37:14;;;;;;;13.40;12.30;;;7.10;99.90;;;;;;4956956;29;20192;-79
2022/09/23 06:39:40;;;;;;;12.60;11.60;;;7.20;99.90;;;;;;4951991;29;20253;-77
2022/09/23 06:42:09;;;;;;;12.50;11.60;;;7.30;99.90;;;;;;4957080;29;20255;-79
2022/09/23 06:44:35;;;;;;;12.90;12.10;;;7.40;99.90;;;;;;4956498;29;20205;-79
2022/09/23 06:47:02;;;;;;;13.27;12.27;;;7.50;99.90;;;;;;4954113;29;20584;-77
2022/09/23 06:49:30;;;;;;;12.87;11.80;;;7.60;99.90;;;;;;4947409;29;20823;-77
2022/09/23 06:51:57;;;;;;;13.10;12.17;;;7.70;99.90;;;;;;4953682;29;20261;-77
2022/09/23 06:54:27;;;;;;;12.97;12.07;;;7.80;99.90;;;;;;4951216;29;20198;-77
2022/09/23 06:56:54;;;;;;;13.00;12.03;;;7.90;99.90;;;;;;4952095;29;20222;-77
2022/09/23 06:59:23;;;;;;;11.80;10.90;;;8.10;99.90;;;;;;4952536;29;20199;-77
2022/09/23 07:01:50;;;;;;;11.90;11.00;;;8.30;99.90;;;;;;4943929;29;20680;-77
2022/09/23 07:04:17;;;;;;;9.00;8.30;;;8.60;99.90;;;;;;4953728;29;20202;-76
2022/09/23 07:06:44;;;;;;;10.60;9.90;;;8.80;99.90;;;;;;4952447;29;20241;-77
2022/09/23 07:09:11;;;;;;;6.30;5.53;;;9.10;99.90;;;;;;4952912;29;20572;-76
2022/09/23 07:11:38;;;;;;;9.57;8.67;;;9.50;99.90;;;;;;4955691;29;20194;-77
2022/09/23 07:14:05;;;;;;;5.63;5.13;;;9.80;99.90;;;;;;4967961;28;20719;-78
2022/09/23 07:16:33;;;;;;;9.90;9.10;;;10.10;99.90;;;;;;4948153;29;20228;-78
2022/09/23 07:19:00;;;;;;;10.77;9.87;;;10.40;99.90;;;;;;4956448;28;20261;-77
2022/09/23 07:21:26;;;;;;;8.57;7.87;;;10.80;99.90;;;;;;4952282;29;20223;-78
2022/09/23 07:23:54;;;;;;;5.00;4.50;;;11.30;99.90;;;;;;4953143;29;20268;-78
2022/09/23 07:26:21;;;;;;;10.23;9.13;;;11.70;99.90;;;;;;4954309;29;20697;-78
2022/09/23 07:28:53;;;;;;;11.43;10.73;;;12.20;99.90;;;;;;4969083;28;20198;-78
2022/09/23 07:31:20;;;;;;;6.57;5.97;;;12.10;99.90;;;;;;4948280;29;20202;-79
2022/09/23 07:33:48;;;;;;;5.87;5.27;;;12.10;99.90;;;;;;4955702;29;20219;-78
2022/09/23 07:36:18;;;;;;;6.40;4.60;;;12.50;99.90;;;;;;4956148;28;20194;-78
2022/09/23 07:38:46;;;;;;;8.33;4.90;;;12.80;99.90;;;;;;4955084;29;20207;-79
2022/09/23 07:41:15;;;;;;;7.40;6.70;;;13.10;99.90;;;;;;4955468;29;20741;-79
2022/09/23 07:43:42;;;;;;;6.73;5.20;;;13.60;99.90;;;;;;4947447;28;20224;-77
2022/09/23 07:46:13;;;;;;;11.63;5.07;;;14.10;99.90;;;;;;4943657;29;20223;-78
2022/09/23 07:48:39;;;;;;;7.80;7.10;;;14.30;99.90;;;;;;4946728;29;20209;-78
2022/09/23 07:51:09;;;;;;;6.00;5.00;;;14.50;99.90;;;;;;4952815;29;20229;-78
2022/09/23 07:53:36;;;;;;;10.10;9.40;;;14.60;99.90;;;;;;4955281;28;20754;-76
2022/09/23 07:56:05;;;;;;;7.10;6.50;;;14.90;99.90;;;;;;4949484;28;20206;-75
2022/09/23 07:58:32;;;;;;;8.40;6.93;;;14.90;99.90;;;;;;4948813;29;20261;-75
2022/09/23 08:01:02;;;;;;;8.27;7.60;;;14.80;99.90;;;;;;4953845;29;20289;-75
2022/09/23 08:03:29;;;;;;;8.60;7.90;;;15.20;99.90;;;;;;4951301;29;20587;-75
2022/09/23 08:06:04;;;;;;;6.50;5.90;;;15.50;99.90;;;;;;4950808;29;20572;-75
2022/09/23 08:08:32;;;;;;;6.50;5.90;;;15.00;99.90;;;;;;4946503;29;20207;-75
2022/09/23 08:11:02;;;;;;;9.50;8.70;;;14.60;99.90;;;;;;4959337;28;20225;-75
2022/09/23 08:13:29;;;;;;;9.60;8.90;;;14.60;99.90;;;;;;4960714;28;20318;-75
2022/09/23 08:15:57;;;;;;;8.43;7.73;;;14.80;99.90;;;;;;4954036;29;20255;-75
2022/09/23 08:18:24;;;;;;;8.47;7.73;;;14.70;99.90;;;;;;4953723;28;20207;-75
2022/09/23 08:20:50;;;;;;;5.77;4.43;;;14.60;99.90;;;;;;4951545;29;20204;-75
2022/09/23 08:23:18;;;;;;;8.93;8.13;;;14.60;99.90;;;;;;4951134;28;20292;-75
2022/09/23 08:25:47;;;;;;;9.30;8.57;;;14.70;99.90;;;;;;4946422;28;20578;-76
2022/09/23 08:28:17;;;;;;;4.50;4.10;;;14.30;99.90;;;;;;4952014;28;20208;-75
2022/09/23 08:30:45;;;;;;;10.10;9.30;;;14.50;99.90;;;;;;4953544;28;20207;-75
2022/09/23 08:33:12;;;;;;;10.63;9.67;;;14.70;99.90;;;;;;4952274;29;20273;-75
2022/09/23 08:35:39;;;;;;;10.80;10.00;;;14.80;99.90;;;;;;4951673;29;20218;-75
2022/09/23 08:38:06;;;;;;;10.77;9.97;;;14.80;99.90;;;;;;4953548;29;20198;-75
2022/09/23 08:40:35;;;;;;;6.70;5.13;;;14.60;99.90;;;;;;4952443;29;20201;-75
2022/09/23 08:43:05;;;;;;;5.83;5.33;;;14.60;99.90;;;;;;4953431;29;20214;-76
2022/09/23 08:45:35;;;;;;;5.90;4.97;;;14.60;99.90;;;;;;4946233;29;20205;-75
2022/09/23 08:48:05;;;;;;;5.30;4.37;;;14.70;99.90;;;;;;4947559;29;20232;-75
2022/09/23 08:50:41;;;;;;;9.57;8.87;;;14.90;99.90;;;;;;4968268;28;20213;-74
2022/09/23 08:53:13;;;;;;;10.60;9.80;;;15.00;99.90;;;;;;4952682;28;20217;-75
2022/09/23 08:55:46;;;;;;;10.77;9.87;;;15.10;99.90;;;;;;4953446;28;20248;-75
2022/09/23 08:58:29;;;;;;;10.47;9.70;;;15.20;99.90;;;;;;4955577;29;20198;-77
2022/09/23 09:01:08;;;;;;;10.33;9.53;;;15.30;99.90;;;;;;4957460;29;20257;-80
2022/09/23 09:03:38;;;;;;;11.37;10.43;;;15.40;99.90;;;;;;4951132;29;20232;-80
2022/09/23 09:06:05;;;;;;;10.40;9.70;;;15.30;99.90;;;;;;4956346;28;20576;-79
2022/09/23 09:08:37;;;;;;;9.30;8.50;;;15.40;99.90;;;;;;4952296;29;20228;-80
2022/09/23 09:11:06;;;;;;;8.50;7.87;;;15.30;99.90;;;;;;4942175;29;20698;-80
2022/09/23 09:13:42;;;;;;;7.57;6.93;;;15.40;99.90;;;;;;4955981;28;20217;-80
2022/09/23 09:16:24;;;;;;;9.77;9.07;;;15.50;99.90;;;;;;4955252;29;20186;-80
2022/09/23 09:18:54;;;;;;;9.80;9.00;;;15.50;99.90;;;;;;4955887;29;20265;-80
2022/09/23 09:21:24;;;;;;;9.87;9.07;;;15.40;99.90;;;;;;4955791;28;20249;-80
2022/09/23 09:23:54;;;;;;;8.73;7.57;;;15.40;99.90;;;;;;4953498;28;20235;-80
2022/09/23 09:26:23;;;;;;;8.73;7.87;;;15.30;99.90;;;;;;4953806;29;20243;-79
2022/09/23 09:28:55;;;;;;;11.23;10.33;;;15.50;99.90;;;;;;4957080;29;20355;-80
2022/09/23 09:31:30;;;;;;;11.40;10.40;;;15.40;99.90;;;;;;4956626;29;20275;-80
2022/09/23 09:34:02;;;;;;;10.23;9.43;;;15.30;99.90;;;;;;4956058;29;20601;-80
2022/09/23 09:36:37;;;;;;;11.63;9.90;;;15.70;99.90;;;;;;4949038;29;20213;-80
2022/09/23 09:39:05;;;;;;;10.70;10.00;;;15.80;99.90;;;;;;4956089;29;20581;-80
2022/09/23 09:41:32;;;;;;;9.50;8.70;;;16.10;99.90;;;;;;4952831;29;20656;-80
2022/09/23 09:44:02;;;;;;;10.57;9.57;;;16.40;99.90;;;;;;4945702;29;20219;-81
2022/09/23 09:46:49;;;;;;;10.13;9.33;;;16.60;99.90;;;;;;4957532;29;20253;-81
2022/09/23 09:49:24;;;;;;;6.23;5.73;;;16.80;99.90;;;;;;4947711;29;20203;-79
2022/09/23 09:52:12;;;;;;;7.10;6.30;;;16.70;99.90;;;;;;4956751;29;20736;-81
2022/09/23 09:54:39;;;;;;;8.47;7.77;;;16.80;99.90;;;;;;4954635;29;20207;-76
2022/09/23 09:57:15;;;;;;;6.60;6.00;;;17.10;99.90;;;;;;4954311;29;20205;-80
2022/09/23 09:59:44;;;;;;;4.77;4.27;;;17.20;99.90;;;;;;4956425;28;20264;-78
2022/09/23 10:02:24;;;;;;;5.43;4.60;;;17.40;99.90;;;;;;4947517;28;20295;-79
2022/09/23 10:05:00;;;;;;;5.20;3.80;;;17.50;99.90;;;;;;4953228;29;20203;-79
2022/09/23 10:07:29;;;;;;;4.33;3.93;;;17.80;99.90;;;;;;4941730;29;20212;-80
2022/09/23 10:09:56;;;;;;;4.97;4.20;;;18.00;99.90;;;;;;4953980;29;20691;-80
2022/09/23 10:12:24;;;;;;;6.33;5.77;;;17.60;99.90;;;;;;4954439;28;20712;-80
2022/09/23 10:14:57;;;;;;;8.10;7.30;;;17.90;99.90;;;;;;4954861;28;20292;-80
2022/09/23 10:17:28;;;;;;;7.00;6.30;;;17.70;99.90;;;;;;4952110;29;20206;-80
2022/09/23 10:19:59;;;;;;;7.10;6.40;;;17.90;99.90;;;;;;4953357;29;20193;-79
2022/09/23 10:22:29;;;;;;;7.80;7.20;;;18.00;99.90;;;;;;4949748;28;20229;-79
2022/09/23 10:25:02;;;;;;;7.97;7.37;;;18.00;99.90;;;;;;4950680;29;20206;-78
2022/09/23 10:27:31;;;;;;;8.27;7.57;;;18.10;99.90;;;;;;4948792;29;20744;-79
2022/09/23 10:30:01;;;;;;;9.37;8.63;;;18.20;99.90;;;;;;4952243;28;20713;-79
2022/09/23 10:32:31;;;;;;;4.67;3.43;;;18.10;99.90;;;;;;4945618;29;20275;-78
2022/09/23 10:35:02;;;;;;;4.53;3.63;;;18.00;99.90;;;;;;4954637;29;20201;-78
2022/09/23 10:37:33;;;;;;;8.03;7.43;;;18.10;99.90;;;;;;4954061;29;20545;-78
2022/09/23 10:48:58;;;;;;;4.43;3.63;;;18.10;99.90;;;;;;4964739;28;20710;-78
2022/09/23 10:51:32;;;;;;;9.33;8.73;;;18.30;99.90;;;;;;4947314;29;20209;-78
2022/09/23 10:54:07;;;;;;;9.13;8.33;;;18.40;99.90;;;;;;4952260;28;20224;-78
2022/09/23 10:56:39;;;;;;;8.27;7.63;;;18.30;99.90;;;;;;4948682;29;20243;-78
2022/09/23 10:59:31;;;;;;;8.40;7.73;;;18.20;99.90;;;;;;4955371;29;20205;-78
2022/09/23 11:02:15;;;;;;;9.17;8.57;;;18.30;99.90;;;;;;4950655;29;20216;-78
2022/09/23 11:05:01;;;;;;;7.83;7.33;;;18.40;99.90;;;;;;4946538;29;20614;-78
2022/09/23 11:07:36;;;;;;;8.60;8.00;;;18.60;99.90;;;;;;4965070;28;20269;-78
2022/09/23 11:10:30;;;;;;;6.33;5.83;;;18.60;99.90;;;;;;4951763;29;20208;-78
2022/09/23 11:13:04;;;;;;;4.50;4.10;;;18.50;99.90;;;;;;4942699;29;20721;-79
2022/09/23 11:15:41;;;;;;;3.50;3.20;;;18.50;99.90;;;;;;4962945;28;20215;-78
2022/09/23 11:18:28;;;;;;;4.97;3.60;;;18.50;99.90;;;;;;4946366;28;20209;-78
2022/09/23 11:21:03;;;;;;;3.97;3.50;;;18.30;99.90;;;;;;4945617;29;20200;-79
2022/09/23 11:23:44;;;;;;;3.50;3.20;;;18.20;99.90;;;;;;4946234;29;20239;-78
2022/09/23 11:26:24;;;;;;;4.63;3.47;;;18.30;99.90;;;;;;4951181;29;20207;-79
2022/09/23 11:29:05;;;;;;;4.00;3.60;;;18.10;99.90;;;;;;4953406;29;20220;-82
2022/09/23 11:31:39;;;;;;;3.33;3.07;;;18.00;99.90;;;;;;4946728;29;20207;-83
2022/09/23 11:34:34;;;;;;;3.20;2.90;;;18.00;99.90;;;;;;4945327;29;20219;-83
2022/09/23 11:37:06;;;;;;;3.20;2.90;;;18.10;99.90;;;;;;4951425;29;20207;-81
2022/09/23 11:39:37;;;;;;;3.40;3.10;;;18.20;99.90;;;;;;4963582;28;20196;-82
2022/09/23 11:42:11;;;;;;;3.37;2.90;;;18.30;99.90;;;;;;4956358;29;20259;-82
2022/09/23 11:44:43;;;;;;;3.17;2.83;;;18.40;99.90;;;;;;4954305;29;20194;-82
2022/09/23 11:47:18;;;;;;;6.73;6.23;;;18.40;99.90;;;;;;4951813;29;20210;-82
2022/09/23 11:49:53;;;;;;;8.30;7.60;;;18.40;99.90;;;;;;4952597;29;20202;-82
2022/09/23 11:52:25;;;;;;;7.90;7.30;;;18.40;99.90;;;;;;4946764;28;20278;-82
2022/09/23 11:54:56;;;;;;;3.23;2.93;;;18.40;99.90;;;;;;4950382;29;20201;-82
2022/09/23 11:57:31;;;;;;;2.70;2.50;;;18.40;99.90;;;;;;4946929;29;20191;-82
2022/09/23 12:00:02;;;;;;;3.13;2.80;;;18.50;99.90;;;;;;4953139;29;20206;-82
2022/09/23 12:02:41;;;;;;;4.33;2.93;;;18.50;99.90;;;;;;4947016;29;20222;-82
2022/09/23 12:05:15;;;;;;;4.17;3.03;;;18.50;99.90;;;;;;4953177;29;20205;-82
2022/09/23 12:07:52;;;;;;;2.83;2.57;;;18.40;99.90;;;;;;4949767;29;20219;-82
2022/09/23 12:10:21;;;;;;;4.00;2.70;;;18.50;99.90;;;;;;4951282;29;20199;-82
2022/09/23 12:12:54;;;;;;;4.07;3.63;;;18.60;99.90;;;;;;4954430;28;20230;-82
2022/09/23 12:15:35;;;;;;;4.87;2.83;;;18.40;99.90;;;;;;4947938;29;20585;-82
2022/09/23 12:18:20;;;;;;;4.37;2.80;;;18.40;99.90;;;;;;4954207;29;20225;-83
2022/09/23 12:21:12;;;;;;;3.67;2.67;;;18.30;99.90;;;;;;4948595;29;20448;-82
2022/09/23 12:24:00;;;;;;;3.40;2.80;;;18.30;99.90;;;;;;4933118;29;20235;-83
2022/09/23 12:26:28;;;;;;;3.10;2.90;;;18.40;99.90;;;;;;4965750;28;20205;-83
2022/09/23 12:29:00;;;;;;;2.97;2.73;;;18.50;99.90;;;;;;4957725;28;20692;-82
2022/09/23 12:31:30;;;;;;;2.93;2.70;;;18.50;99.90;;;;;;4953326;29;20198;-82
2022/09/23 12:33:58;;;;;;;3.23;2.93;;;18.50;99.90;;;;;;4962644;28;20234;-82
2022/09/23 12:36:33;;;;;;;2.93;2.63;;;18.70;99.90;;;;;;4946917;29;20716;-82
2022/09/23 12:39:03;;;;;;;6.30;5.80;;;18.70;99.90;;;;;;4954344;29;20202;-82
2022/09/23 12:41:35;;;;;;;7.30;6.80;;;18.80;99.90;;;;;;4945230;29;20208;-83
2022/09/23 12:44:15;;;;;;;7.67;7.00;;;18.80;99.90;;;;;;4953336;29;20222;-83
2022/09/23 12:46:43;;;;;;;7.03;6.47;;;18.70;99.90;;;;;;4952743;29;20207;-82
2022/09/23 12:49:24;;;;;;;7.43;6.93;;;18.70;99.90;;;;;;4951003;29;20227;-82
2022/09/23 12:52:25;;;;;;;7.90;7.30;;;18.70;99.90;;;;;;4952285;29;20202;-82
2022/09/23 12:54:55;;;;;;;2.97;2.63;;;18.80;99.90;;;;;;4899440;29;20620;-82
2022/09/23 12:57:40;;;;;;;7.00;6.60;;;18.90;99.90;;;;;;4949874;29;20251;-82
2022/09/23 13:00:24;;;;;;;7.70;7.10;;;18.90;99.90;;;;;;4952216;28;20287;-82
2022/09/23 13:08:37;;;;;;;7.80;7.30;;;19.20;99.90;;;;;;4947779;29;20215;-81
2022/09/23 13:11:07;;;;;;;3.83;3.53;;;19.30;99.90;;;;;;4953710;29;20259;-82
2022/09/23 13:13:39;;;;;;;3.27;2.50;;;19.40;99.90;;;;;;4949316;29;20224;-81
2022/09/23 13:16:13;;;;;;;7.27;6.87;;;19.40;99.90;;;;;;4950264;29;20259;-82